sensor_id;sensor_type;location;lat;lon;timestamp;pressure;altitude;pressure_sealevel;temperature;humidity
71299;BME280;59083;47.974;21.722;2023-05-08T00:01:03;100897.94;;;7.64;80.89
71299;BME280;59083;47.974;21.722;2023-05-08T00:04:04;100894.44;;;7.63;80.72
71299;BME280;59083;47.974;21.722;2023-05-08T00:07:05;100877.03;;;7.61;81.11
71299;BME280;59083;47.974;21.722;2023-05-08T00:10:07;100880.16;;;7.56;81.20
71299;BME280;59083;47.974;21.722;2023-05-08T00:13:09;100882.56;;;7.67;81.25
71299;BME280;59083;47.974;21.722;2023-05-08T00:16:11;100886.59;;;7.28;82.23
71299;BME280;59083;47.974;21.722;2023-05-08T00:19:12;100873.09;;;7.39;82.41
71299;BME280;59083;47.974;21.722;2023-05-08T00:22:13;100892.53;;;7.47;81.76
71299;BME280;59083;47.974;21.722;2023-05-08T00:25:14;100888.06;;;7.48;81.95
71299;BME280;59083;47.974;21.722;2023-05-08T00:28:16;100894.41;;;7.55;81.71
71299;BME280;59083;47.974;21.722;2023-05-08T00:31:17;100882.44;;;7.51;81.61
71299;BME280;59083;47.974;21.722;2023-05-08T00:34:18;100902.53;;;7.36;82.44
71299;BME280;59083;47.974;21.722;2023-05-08T00:37:19;100887.00;;;7.41;82.45
71299;BME280;59083;47.974;21.722;2023-05-08T00:40:20;100886.25;;;7.31;82.76
71299;BME280;59083;47.974;21.722;2023-05-08T00:43:22;100887.78;;;7.33;82.69
71299;BME280;59083;47.974;21.722;2023-05-08T00:46:28;100894.28;;;7.39;82.89
71299;BME280;59083;47.974;21.722;2023-05-08T00:49:29;100889.06;;;7.29;83.09
71299;BME280;59083;47.974;21.722;2023-05-08T00:52:32;100900.50;;;7.30;82.75
71299;BME280;59083;47.974;21.722;2023-05-08T00:55:33;100881.06;;;7.21;83.87
71299;BME280;59083;47.974;21.722;2023-05-08T00:58:35;100885.91;;;7.26;83.37
71299;BME280;59083;47.974;21.722;2023-05-08T01:01:36;100886.59;;;7.28;83.62
71299;BME280;59083;47.974;21.722;2023-05-08T01:04:39;100889.91;;;7.30;83.09
71299;BME280;59083;47.974;21.722;2023-05-08T01:07:41;100888.88;;;7.23;83.86
71299;BME280;59083;47.974;21.722;2023-05-08T01:10:47;100892.13;;;7.17;83.58
71299;BME280;59083;47.974;21.722;2023-05-08T01:20:29;100899.72;;;7.12;83.96
71299;BME280;59083;47.974;21.722;2023-05-08T01:33:48;100921.34;;;7.25;83.78
71299;BME280;59083;47.974;21.722;2023-05-08T01:37:00;100919.91;;;7.13;83.74
71299;BME280;59083;47.974;21.722;2023-05-08T01:40:08;100922.78;;;7.01;84.83
71299;BME280;59083;47.974;21.722;2023-05-08T01:43:24;100934.28;;;6.92;84.77
71299;BME280;59083;47.974;21.722;2023-05-08T01:46:31;100944.56;;;6.95;85.04
71299;BME280;59083;47.974;21.722;2023-05-08T01:49:37;100943.31;;;6.99;84.86
71299;BME280;59083;47.974;21.722;2023-05-08T01:52:48;100931.19;;;6.97;84.66
71299;BME280;59083;47.974;21.722;2023-05-08T01:55:54;100930.66;;;6.93;84.88
71299;BME280;59083;47.974;21.722;2023-05-08T01:58:58;100930.19;;;6.80;85.81
71299;BME280;59083;47.974;21.722;2023-05-08T02:02:01;100922.63;;;6.85;85.25
71299;BME280;59083;47.974;21.722;2023-05-08T02:05:05;100930.81;;;6.92;85.08
71299;BME280;59083;47.974;21.722;2023-05-08T02:08:08;100938.13;;;6.80;85.54
71299;BME280;59083;47.974;21.722;2023-05-08T02:11:12;100935.19;;;6.83;85.48
71299;BME280;59083;47.974;21.722;2023-05-08T02:14:16;100934.56;;;6.89;85.05
71299;BME280;59083;47.974;21.722;2023-05-08T02:17:21;100939.94;;;6.80;85.42
71299;BME280;59083;47.974;21.722;2023-05-08T02:20:24;100940.78;;;6.80;85.56
71299;BME280;59083;47.974;21.722;2023-05-08T02:23:26;100933.81;;;6.79;85.57
71299;BME280;59083;47.974;21.722;2023-05-08T02:26:29;100932.13;;;6.78;85.44
71299;BME280;59083;47.974;21.722;2023-05-08T02:29:31;100919.34;;;6.74;85.51
71299;BME280;59083;47.974;21.722;2023-05-08T02:32:33;100927.75;;;6.69;85.58
71299;BME280;59083;47.974;21.722;2023-05-08T02:35:36;100931.09;;;6.71;85.72
71299;BME280;59083;47.974;21.722;2023-05-08T02:38:40;100926.31;;;6.75;86.24
71299;BME280;59083;47.974;21.722;2023-05-08T02:41:44;100923.91;;;6.81;85.38
71299;BME280;59083;47.974;21.722;2023-05-08T02:44:45;100921.16;;;6.73;85.61
71299;BME280;59083;47.974;21.722;2023-05-08T02:48:00;100926.91;;;6.69;85.89
71299;BME280;59083;47.974;21.722;2023-05-08T03:01:32;100925.25;;;6.68;85.80
71299;BME280;59083;47.974;21.722;2023-05-08T03:04:40;100917.06;;;6.61;85.88
71299;BME280;59083;47.974;21.722;2023-05-08T03:07:47;100930.59;;;6.58;86.24
71299;BME280;59083;47.974;21.722;2023-05-08T03:10:51;100915.84;;;6.55;86.51
71299;BME280;59083;47.974;21.722;2023-05-08T03:13:57;100925.63;;;6.55;86.13
71299;BME280;59083;47.974;21.722;2023-05-08T03:17:03;100920.12;;;6.66;85.75
71299;BME280;59083;47.974;21.722;2023-05-08T03:20:08;100937.56;;;6.59;86.09
71299;BME280;59083;47.974;21.722;2023-05-08T03:23:14;100927.66;;;6.61;85.18
71299;BME280;59083;47.974;21.722;2023-05-08T03:26:17;100925.41;;;6.66;85.80
71299;BME280;59083;47.974;21.722;2023-05-08T03:29:20;100924.59;;;6.83;84.12
71299;BME280;59083;47.974;21.722;2023-05-08T03:32:24;100931.31;;;7.48;80.78
71299;BME280;59083;47.974;21.722;2023-05-08T03:35:27;100924.22;;;8.01;78.55
71299;BME280;59083;47.974;21.722;2023-05-08T03:38:28;100931.69;;;8.31;78.21
71299;BME280;59083;47.974;21.722;2023-05-08T03:41:30;100944.28;;;8.03;77.89
71299;BME280;59083;47.974;21.722;2023-05-08T03:44:32;100926.81;;;7.93;78.14
71299;BME280;59083;47.974;21.722;2023-05-08T03:47:34;100937.47;;;7.75;79.00
71299;BME280;59083;47.974;21.722;2023-05-08T03:50:37;100936.34;;;7.34;80.52
71299;BME280;59083;47.974;21.722;2023-05-08T03:53:38;100933.47;;;7.27;81.04
71299;BME280;59083;47.974;21.722;2023-05-08T03:56:40;100915.19;;;7.42;80.41
71299;BME280;59083;47.974;21.722;2023-05-08T03:59:50;100940.03;;;8.36;77.21
71299;BME280;59083;47.974;21.722;2023-05-08T04:03:05;100940.03;;;8.86;74.15
71299;BME280;59083;47.974;21.722;2023-05-08T04:06:16;100936.25;;;9.70;70.95
71299;BME280;59083;47.974;21.722;2023-05-08T04:09:33;100938.94;;;10.41;68.59
71299;BME280;59083;47.974;21.722;2023-05-08T04:12:53;100936.41;;;11.55;65.03
71299;BME280;59083;47.974;21.722;2023-05-08T04:16:08;100941.22;;;12.77;61.41
71299;BME280;59083;47.974;21.722;2023-05-08T04:19:18;100931.34;;;13.56;56.88
71299;BME280;59083;47.974;21.722;2023-05-08T04:22:24;100952.47;;;13.23;56.19
71299;BME280;59083;47.974;21.722;2023-05-08T04:25:28;100959.28;;;13.96;53.73
71299;BME280;59083;47.974;21.722;2023-05-08T04:28:30;100948.66;;;14.09;52.69
71299;BME280;59083;47.974;21.722;2023-05-08T04:31:34;100958.97;;;14.05;52.50
71299;BME280;59083;47.974;21.722;2023-05-08T04:34:37;100959.44;;;14.91;50.56
71299;BME280;59083;47.974;21.722;2023-05-08T04:37:40;100952.28;;;14.57;51.20
71299;BME280;59083;47.974;21.722;2023-05-08T04:40:42;100942.81;;;15.48;47.86
71299;BME280;59083;47.974;21.722;2023-05-08T04:43:44;100957.12;;;13.85;50.85
71299;BME280;59083;47.974;21.722;2023-05-08T04:46:45;100957.06;;;15.49;48.07
71299;BME280;59083;47.974;21.722;2023-05-08T04:49:47;100957.88;;;15.49;47.70
71299;BME280;59083;47.974;21.722;2023-05-08T04:52:48;100956.47;;;15.86;48.31
71299;BME280;59083;47.974;21.722;2023-05-08T04:55:51;100968.19;;;16.38;45.45
71299;BME280;59083;47.974;21.722;2023-05-08T04:58:52;100965.47;;;17.71;42.86
71299;BME280;59083;47.974;21.722;2023-05-08T05:01:55;100956.06;;;17.49;42.90
71299;BME280;59083;47.974;21.722;2023-05-08T05:04:56;100965.69;;;17.70;42.41
71299;BME280;59083;47.974;21.722;2023-05-08T05:07:59;100961.47;;;17.81;41.54
71299;BME280;59083;47.974;21.722;2023-05-08T05:11:00;100951.19;;;18.14;41.66
71299;BME280;59083;47.974;21.722;2023-05-08T05:14:02;100979.87;;;17.84;41.08
71299;BME280;59083;47.974;21.722;2023-05-08T05:17:03;100969.75;;;18.04;40.83
71299;BME280;59083;47.974;21.722;2023-05-08T05:20:05;100974.56;;;17.14;42.71
71299;BME280;59083;47.974;21.722;2023-05-08T05:23:08;100971.44;;;16.73;42.46
71299;BME280;59083;47.974;21.722;2023-05-08T05:26:10;100961.28;;;18.62;40.56
71299;BME280;59083;47.974;21.722;2023-05-08T05:29:11;100976.25;;;18.94;39.18
71299;BME280;59083;47.974;21.722;2023-05-08T05:32:13;100985.91;;;18.47;40.09
71299;BME280;59083;47.974;21.722;2023-05-08T05:35:15;100979.84;;;15.92;44.68
71299;BME280;59083;47.974;21.722;2023-05-08T05:38:16;100984.34;;;16.18;45.88
71299;BME280;59083;47.974;21.722;2023-05-08T05:41:18;100988.84;;;17.46;42.79
71299;BME280;59083;47.974;21.722;2023-05-08T05:44:20;100984.12;;;17.73;42.64
71299;BME280;59083;47.974;21.722;2023-05-08T05:47:23;100974.31;;;19.42;38.75
71299;BME280;59083;47.974;21.722;2023-05-08T05:50:25;100980.53;;;19.43;38.53
71299;BME280;59083;47.974;21.722;2023-05-08T05:53:27;100973.25;;;19.85;37.16
71299;BME280;59083;47.974;21.722;2023-05-08T05:56:29;100964.31;;;19.96;37.29
71299;BME280;59083;47.974;21.722;2023-05-08T05:59:30;100965.97;;;19.44;37.40
71299;BME280;59083;47.974;21.722;2023-05-08T06:02:32;100972.59;;;19.18;37.88
71299;BME280;59083;47.974;21.722;2023-05-08T06:05:36;100983.94;;;16.99;42.49
71299;BME280;59083;47.974;21.722;2023-05-08T06:08:37;100998.94;;;14.07;48.35
71299;BME280;59083;47.974;21.722;2023-05-08T06:11:38;100995.91;;;13.04;52.01
71299;BME280;59083;47.974;21.722;2023-05-08T06:14:39;100989.66;;;12.67;53.57
71299;BME280;59083;47.974;21.722;2023-05-08T06:17:41;100998.97;;;12.86;53.14
71299;BME280;59083;47.974;21.722;2023-05-08T06:20:42;100986.31;;;12.95;52.86
71299;BME280;59083;47.974;21.722;2023-05-08T06:23:44;100997.72;;;13.82;51.18
71299;BME280;59083;47.974;21.722;2023-05-08T06:26:45;100993.72;;;14.27;50.05
71299;BME280;59083;47.974;21.722;2023-05-08T06:29:49;100990.09;;;16.54;44.98
71299;BME280;59083;47.974;21.722;2023-05-08T06:32:52;100983.09;;;17.99;40.63
71299;BME280;59083;47.974;21.722;2023-05-08T06:35:54;101002.72;;;17.81;41.40
71299;BME280;59083;47.974;21.722;2023-05-08T06:38:55;100991.19;;;19.26;38.20
71299;BME280;59083;47.974;21.722;2023-05-08T06:41:56;101003.47;;;19.40;38.10
71299;BME280;59083;47.974;21.722;2023-05-08T06:44:58;100985.50;;;20.22;36.60
71299;BME280;59083;47.974;21.722;2023-05-08T06:47:59;100990.34;;;20.09;36.61
71299;BME280;59083;47.974;21.722;2023-05-08T06:51:00;100994.41;;;21.21;34.75
71299;BME280;59083;47.974;21.722;2023-05-08T06:54:02;101010.31;;;17.91;39.43
71299;BME280;59083;47.974;21.722;2023-05-08T06:57:07;100993.47;;;15.58;44.78
71299;BME280;59083;47.974;21.722;2023-05-08T07:00:09;101007.22;;;14.68;47.27
71299;BME280;59083;47.974;21.722;2023-05-08T07:03:12;101009.91;;;15.28;46.76
71299;BME280;59083;47.974;21.722;2023-05-08T07:06:13;100997.62;;;14.24;48.27
71299;BME280;59083;47.974;21.722;2023-05-08T07:09:14;101011.69;;;15.95;44.97
71299;BME280;59083;47.974;21.722;2023-05-08T07:12:17;101006.16;;;16.87;42.52
71299;BME280;59083;47.974;21.722;2023-05-08T07:15:18;101024.19;;;18.19;40.52
71299;BME280;59083;47.974;21.722;2023-05-08T07:18:19;101024.41;;;17.30;41.80
71299;BME280;59083;47.974;21.722;2023-05-08T07:21:20;101024.19;;;15.36;45.95
71299;BME280;59083;47.974;21.722;2023-05-08T07:24:22;101030.63;;;18.18;41.26
71299;BME280;59083;47.974;21.722;2023-05-08T07:27:24;101004.09;;;20.07;36.78
71299;BME280;59083;47.974;21.722;2023-05-08T07:30:25;101013.00;;;20.89;35.39
71299;BME280;59083;47.974;21.722;2023-05-08T07:33:26;101026.31;;;18.35;39.46
71299;BME280;59083;47.974;21.722;2023-05-08T07:36:28;101022.22;;;17.14;42.26
71299;BME280;59083;47.974;21.722;2023-05-08T07:39:29;101032.78;;;15.98;44.96
71299;BME280;59083;47.974;21.722;2023-05-08T07:42:30;101047.00;;;15.05;46.58
71299;BME280;59083;47.974;21.722;2023-05-08T07:45:31;101039.91;;;14.22;49.01
71299;BME280;59083;47.974;21.722;2023-05-08T07:48:33;101038.34;;;15.03;47.69
71299;BME280;59083;47.974;21.722;2023-05-08T07:51:34;101061.75;;;14.75;48.35
71299;BME280;59083;47.974;21.722;2023-05-08T07:54:35;101043.22;;;14.93;47.87
71299;BME280;59083;47.974;21.722;2023-05-08T07:57:40;101041.06;;;14.13;50.02
71299;BME280;59083;47.974;21.722;2023-05-08T08:00:41;101042.00;;;14.89;48.67
71299;BME280;59083;47.974;21.722;2023-05-08T08:03:44;101036.72;;;15.15;47.75
71299;BME280;59083;47.974;21.722;2023-05-08T08:06:45;101040.28;;;14.75;48.81
71299;BME280;59083;47.974;21.722;2023-05-08T08:09:46;101041.91;;;14.41;49.74
71299;BME280;59083;47.974;21.722;2023-05-08T08:12:47;101029.78;;;14.24;49.98
71299;BME280;59083;47.974;21.722;2023-05-08T08:15:48;101031.31;;;15.02;47.99
71299;BME280;59083;47.974;21.722;2023-05-08T08:18:50;101037.91;;;15.00;48.47
71299;BME280;59083;47.974;21.722;2023-05-08T08:21:52;101043.34;;;15.19;48.39
71299;BME280;59083;47.974;21.722;2023-05-08T08:24:54;101046.44;;;14.69;48.81
71299;BME280;59083;47.974;21.722;2023-05-08T08:27:56;101042.22;;;14.60;49.08
71299;BME280;59083;47.974;21.722;2023-05-08T08:30:58;101033.25;;;14.74;48.60
71299;BME280;59083;47.974;21.722;2023-05-08T08:33:59;101038.94;;;14.58;49.90
71299;BME280;59083;47.974;21.722;2023-05-08T08:37:01;101035.03;;;15.68;47.83
71299;BME280;59083;47.974;21.722;2023-05-08T08:40:02;101039.38;;;16.42;46.34
71299;BME280;59083;47.974;21.722;2023-05-08T08:43:03;101038.13;;;16.44;45.27
71299;BME280;59083;47.974;21.722;2023-05-08T08:46:10;101036.41;;;16.83;44.27
71299;BME280;59083;47.974;21.722;2023-05-08T08:49:17;101029.44;;;16.62;44.96
71299;BME280;59083;47.974;21.722;2023-05-08T08:52:29;101032.69;;;17.66;42.71
71299;BME280;59083;47.974;21.722;2023-05-08T08:55:32;101037.94;;;18.61;40.31
71299;BME280;59083;47.974;21.722;2023-05-08T08:58:43;101032.78;;;19.25;39.47
71299;BME280;59083;47.974;21.722;2023-05-08T09:01:49;101037.78;;;17.43;41.79
71299;BME280;59083;47.974;21.722;2023-05-08T09:04:53;101030.63;;;18.18;41.04
71299;BME280;59083;47.974;21.722;2023-05-08T09:07:54;101024.50;;;17.80;41.67
71299;BME280;59083;47.974;21.722;2023-05-08T09:10:56;101034.59;;;16.57;42.66
71299;BME280;59083;47.974;21.722;2023-05-08T09:13:57;101045.19;;;16.19;44.25
71299;BME280;59083;47.974;21.722;2023-05-08T09:16:59;101039.81;;;16.19;44.23
71299;BME280;59083;47.974;21.722;2023-05-08T09:20:00;101032.19;;;17.07;42.92
71299;BME280;59083;47.974;21.722;2023-05-08T09:23:02;101039.81;;;16.12;44.84
71299;BME280;59083;47.974;21.722;2023-05-08T09:26:04;101033.16;;;16.48;44.14
71299;BME280;59083;47.974;21.722;2023-05-08T09:29:19;101033.13;;;16.74;43.97
71299;BME280;59083;47.974;21.722;2023-05-08T09:32:24;101028.88;;;17.81;42.03
71299;BME280;59083;47.974;21.722;2023-05-08T09:35:34;101023.25;;;17.13;42.62
71299;BME280;59083;47.974;21.722;2023-05-08T09:38:38;101023.22;;;17.19;42.15
71299;BME280;59083;47.974;21.722;2023-05-08T09:41:56;101029.00;;;17.16;42.00
71299;BME280;59083;47.974;21.722;2023-05-08T09:44:57;101036.13;;;16.98;42.67
71299;BME280;59083;47.974;21.722;2023-05-08T09:47:59;101033.81;;;17.14;41.43
71299;BME280;59083;47.974;21.722;2023-05-08T09:51:06;101027.63;;;17.01;41.96
71299;BME280;59083;47.974;21.722;2023-05-08T09:54:16;101035.06;;;17.12;41.97
71299;BME280;59083;47.974;21.722;2023-05-08T09:57:17;101021.13;;;17.15;41.38
71299;BME280;59083;47.974;21.722;2023-05-08T10:00:19;101014.72;;;17.16;41.38
71299;BME280;59083;47.974;21.722;2023-05-08T10:03:21;101023.19;;;17.57;41.26
71299;BME280;59083;47.974;21.722;2023-05-08T10:06:22;101020.75;;;17.49;41.52
71299;BME280;59083;47.974;21.722;2023-05-08T10:09:23;101019.19;;;17.35;42.03
71299;BME280;59083;47.974;21.722;2023-05-08T10:12:25;101021.69;;;17.30;41.45
71299;BME280;59083;47.974;21.722;2023-05-08T10:15:28;100968.91;;;16.78;41.96
71299;BME280;59083;47.974;21.722;2023-05-08T10:18:34;101020.34;;;17.46;41.11
71299;BME280;59083;47.974;21.722;2023-05-08T10:21:40;101014.84;;;17.34;40.81
71299;BME280;59083;47.974;21.722;2023-05-08T10:24:43;101020.91;;;17.92;40.08
71299;BME280;59083;47.974;21.722;2023-05-08T10:31:02;101020.50;;;17.89;40.76
71299;BME280;59083;47.974;21.722;2023-05-08T10:34:03;101000.31;;;17.35;42.01
71299;BME280;59083;47.974;21.722;2023-05-08T10:37:08;101016.66;;;18.03;40.95
71299;BME280;59083;47.974;21.722;2023-05-08T10:40:10;101016.91;;;17.32;41.31
71299;BME280;59083;47.974;21.722;2023-05-08T10:43:13;101017.47;;;17.47;41.29
71299;BME280;59083;47.974;21.722;2023-05-08T10:46:48;101017.75;;;17.26;42.09
71299;BME280;59083;47.974;21.722;2023-05-08T10:53:19;101019.25;;;17.22;41.82
71299;BME280;59083;47.974;21.722;2023-05-08T10:56:26;101016.59;;;17.09;41.93
71299;BME280;59083;47.974;21.722;2023-05-08T10:59:27;101013.00;;;17.28;41.64
71299;BME280;59083;47.974;21.722;2023-05-08T11:02:29;101025.38;;;17.42;41.70
71299;BME280;59083;47.974;21.722;2023-05-08T11:05:47;101027.00;;;17.43;41.73
71299;BME280;59083;47.974;21.722;2023-05-08T11:08:49;101020.75;;;17.11;42.55
71299;BME280;59083;47.974;21.722;2023-05-08T11:15:06;101019.13;;;17.48;42.21
71299;BME280;59083;47.974;21.722;2023-05-08T11:18:08;101022.69;;;17.73;41.70
71299;BME280;59083;47.974;21.722;2023-05-08T11:21:15;101018.41;;;17.59;41.25
71299;BME280;59083;47.974;21.722;2023-05-08T11:24:33;101009.66;;;17.32;41.59
71299;BME280;59083;47.974;21.722;2023-05-08T11:30:52;101024.94;;;17.07;42.35
71299;BME280;59083;47.974;21.722;2023-05-08T11:33:54;101017.72;;;16.94;42.10
71299;BME280;59083;47.974;21.722;2023-05-08T11:37:02;101007.06;;;16.68;42.60
71299;BME280;59083;47.974;21.722;2023-05-08T11:46:52;101003.88;;;16.84;43.10
71299;BME280;59083;47.974;21.722;2023-05-08T11:49:54;101002.09;;;16.65;43.02
71299;BME280;59083;47.974;21.722;2023-05-08T11:52:55;101017.38;;;16.71;42.46
71299;BME280;59083;47.974;21.722;2023-05-08T11:56:00;101004.13;;;16.70;42.48
71299;BME280;59083;47.974;21.722;2023-05-08T11:59:05;101012.03;;;16.65;42.22
71299;BME280;59083;47.974;21.722;2023-05-08T12:02:09;101002.94;;;16.46;42.19
71299;BME280;59083;47.974;21.722;2023-05-08T12:05:10;101022.75;;;16.84;42.44
71299;BME280;59083;47.974;21.722;2023-05-08T12:08:12;101019.91;;;16.66;42.68
71299;BME280;59083;47.974;21.722;2023-05-08T12:11:21;101032.34;;;16.61;42.39
71299;BME280;59083;47.974;21.722;2023-05-08T12:14:22;101016.56;;;16.64;42.61
71299;BME280;59083;47.974;21.722;2023-05-08T12:17:24;101007.47;;;16.52;42.67
71299;BME280;59083;47.974;21.722;2023-05-08T12:20:25;101019.09;;;16.46;42.76
71299;BME280;59083;47.974;21.722;2023-05-08T12:23:29;101017.44;;;16.45;42.28
71299;BME280;59083;47.974;21.722;2023-05-08T12:26:34;101019.97;;;16.00;44.26
71299;BME280;59083;47.974;21.722;2023-05-08T12:29:37;100986.88;;;15.93;44.51
71299;BME280;59083;47.974;21.722;2023-05-08T12:32:42;101020.97;;;16.12;44.30
71299;BME280;59083;47.974;21.722;2023-05-08T12:35:43;101018.09;;;16.07;44.81
71299;BME280;59083;47.974;21.722;2023-05-08T12:38:45;101008.75;;;16.30;44.82
71299;BME280;59083;47.974;21.722;2023-05-08T12:41:50;101029.22;;;16.44;45.00
71299;BME280;59083;47.974;21.722;2023-05-08T12:44:52;101035.66;;;16.43;44.83
71299;BME280;59083;47.974;21.722;2023-05-08T12:47:58;101040.63;;;16.33;45.02
71299;BME280;59083;47.974;21.722;2023-05-08T12:51:02;101030.31;;;16.03;45.43
71299;BME280;59083;47.974;21.722;2023-05-08T12:54:04;101019.97;;;16.00;45.06
71299;BME280;59083;47.974;21.722;2023-05-08T12:57:18;101017.88;;;15.89;45.17
71299;BME280;59083;47.974;21.722;2023-05-08T13:00:21;101038.56;;;15.95;45.19
71299;BME280;59083;47.974;21.722;2023-05-08T13:03:27;101019.56;;;15.77;45.09
71299;BME280;59083;47.974;21.722;2023-05-08T13:06:29;101033.59;;;15.66;44.60
71299;BME280;59083;47.974;21.722;2023-05-08T13:09:31;101047.44;;;15.89;44.09
71299;BME280;59083;47.974;21.722;2023-05-08T13:12:32;101031.13;;;16.04;43.80
71299;BME280;59083;47.974;21.722;2023-05-08T13:15:34;101029.47;;;15.96;43.60
71299;BME280;59083;47.974;21.722;2023-05-08T13:18:35;101029.87;;;15.87;43.63
71299;BME280;59083;47.974;21.722;2023-05-08T13:21:37;101032.78;;;15.85;43.41
71299;BME280;59083;47.974;21.722;2023-05-08T13:24:39;101038.13;;;15.79;43.50
71299;BME280;59083;47.974;21.722;2023-05-08T13:27:40;101032.78;;;15.98;44.25
71299;BME280;59083;47.974;21.722;2023-05-08T13:30:41;101036.69;;;15.89;43.80
71299;BME280;59083;47.974;21.722;2023-05-08T13:33:43;101047.69;;;15.94;43.38
71299;BME280;59083;47.974;21.722;2023-05-08T13:36:44;101054.69;;;15.82;43.95
71299;BME280;59083;47.974;21.722;2023-05-08T13:39:45;101044.75;;;15.69;43.94
71299;BME280;59083;47.974;21.722;2023-05-08T13:42:47;101041.38;;;15.48;44.08
71299;BME280;59083;47.974;21.722;2023-05-08T13:45:48;101048.03;;;15.52;44.26
71299;BME280;59083;47.974;21.722;2023-05-08T13:48:49;101044.34;;;15.66;44.66
71299;BME280;59083;47.974;21.722;2023-05-08T13:51:50;101047.44;;;15.69;44.08
71299;BME280;59083;47.974;21.722;2023-05-08T13:54:51;101031.94;;;15.78;44.46
71299;BME280;59083;47.974;21.722;2023-05-08T13:57:52;101048.03;;;15.58;44.34
71299;BME280;59083;47.974;21.722;2023-05-08T14:00:54;101049.81;;;15.45;44.48
71299;BME280;59083;47.974;21.722;2023-05-08T14:03:55;101045.25;;;15.39;44.79
71299;BME280;59083;47.974;21.722;2023-05-08T14:06:56;101046.19;;;15.59;44.39
71299;BME280;59083;47.974;21.722;2023-05-08T14:09:58;101050.03;;;15.50;44.69
71299;BME280;59083;47.974;21.722;2023-05-08T14:12:59;101042.19;;;15.42;44.54
71299;BME280;59083;47.974;21.722;2023-05-08T14:16:02;101045.41;;;15.17;45.17
71299;BME280;59083;47.974;21.722;2023-05-08T14:19:03;101044.78;;;15.15;45.01
71299;BME280;59083;47.974;21.722;2023-05-08T14:22:05;101052.06;;;15.35;45.00
71299;BME280;59083;47.974;21.722;2023-05-08T14:25:07;101025.75;;;15.10;45.06
71299;BME280;59083;47.974;21.722;2023-05-08T14:28:08;101061.94;;;15.14;45.41
71299;BME280;59083;47.974;21.722;2023-05-08T14:31:10;101059.25;;;15.14;45.63
71299;BME280;59083;47.974;21.722;2023-05-08T14:34:11;101081.34;;;15.16;45.59
71299;BME280;59083;47.974;21.722;2023-05-08T14:37:12;101075.28;;;15.01;45.90
71299;BME280;59083;47.974;21.722;2023-05-08T14:40:14;101083.72;;;14.98;46.11
71299;BME280;59083;47.974;21.722;2023-05-08T14:43:15;101092.69;;;14.77;46.48
71299;BME280;59083;47.974;21.722;2023-05-08T14:46:17;101080.38;;;14.89;46.28
71299;BME280;59083;47.974;21.722;2023-05-08T14:49:18;101100.38;;;14.87;46.34
71299;BME280;59083;47.974;21.722;2023-05-08T14:52:19;101107.13;;;14.76;46.86
71299;BME280;59083;47.974;21.722;2023-05-08T14:55:20;101109.16;;;14.68;47.01
71299;BME280;59083;47.974;21.722;2023-05-08T14:58:22;101103.16;;;14.66;47.09
71299;BME280;59083;47.974;21.722;2023-05-08T15:01:23;101119.41;;;14.58;47.07
71299;BME280;59083;47.974;21.722;2023-05-08T15:04:24;101115.56;;;14.39;47.39
71299;BME280;59083;47.974;21.722;2023-05-08T15:07:25;101126.75;;;14.49;47.39
71299;BME280;59083;47.974;21.722;2023-05-08T15:10:27;101128.00;;;14.46;47.64
71299;BME280;59083;47.974;21.722;2023-05-08T15:13:28;101132.97;;;14.50;47.42
71299;BME280;59083;47.974;21.722;2023-05-08T15:16:30;101128.37;;;14.43;47.64
71299;BME280;59083;47.974;21.722;2023-05-08T15:19:32;101124.16;;;14.34;47.93
71299;BME280;59083;47.974;21.722;2023-05-08T15:22:33;101130.81;;;14.38;47.53
71299;BME280;59083;47.974;21.722;2023-05-08T15:25:34;101128.87;;;14.32;47.56
71299;BME280;59083;47.974;21.722;2023-05-08T15:28:36;101124.41;;;13.97;48.42
71299;BME280;59083;47.974;21.722;2023-05-08T15:31:40;101123.91;;;14.08;48.40
71299;BME280;59083;47.974;21.722;2023-05-08T15:34:41;101129.56;;;14.20;48.18
71299;BME280;59083;47.974;21.722;2023-05-08T15:37:42;101124.78;;;14.15;47.86
71299;BME280;59083;47.974;21.722;2023-05-08T15:40:44;101127.56;;;14.00;48.28
71299;BME280;59083;47.974;21.722;2023-05-08T15:43:45;101122.22;;;14.07;48.92
71299;BME280;59083;47.974;21.722;2023-05-08T15:46:46;101122.75;;;14.17;48.41
71299;BME280;59083;47.974;21.722;2023-05-08T15:49:47;101133.09;;;14.20;48.74
71299;BME280;59083;47.974;21.722;2023-05-08T15:52:48;101130.28;;;14.07;48.58
71299;BME280;59083;47.974;21.722;2023-05-08T15:55:50;101137.53;;;13.71;49.55
71299;BME280;59083;47.974;21.722;2023-05-08T15:58:51;101123.84;;;13.80;49.60
71299;BME280;59083;47.974;21.722;2023-05-08T16:01:52;101131.87;;;13.80;49.52
71299;BME280;59083;47.974;21.722;2023-05-08T16:04:53;101128.09;;;13.75;49.50
71299;BME280;59083;47.974;21.722;2023-05-08T16:07:55;101136.94;;;13.54;50.02
71299;BME280;59083;47.974;21.722;2023-05-08T16:10:56;101140.94;;;13.43;50.43
71299;BME280;59083;47.974;21.722;2023-05-08T16:13:58;101132.69;;;13.45;50.43
71299;BME280;59083;47.974;21.722;2023-05-08T16:16:59;101138.78;;;13.39;50.67
71299;BME280;59083;47.974;21.722;2023-05-08T16:20:00;101142.13;;;13.41;50.96
71299;BME280;59083;47.974;21.722;2023-05-08T16:23:03;101142.44;;;13.31;51.20
71299;BME280;59083;47.974;21.722;2023-05-08T16:26:04;101134.12;;;13.26;51.13
71299;BME280;59083;47.974;21.722;2023-05-08T16:29:06;101126.84;;;13.20;51.36
71299;BME280;59083;47.974;21.722;2023-05-08T16:32:07;101135.09;;;13.10;51.63
71299;BME280;59083;47.974;21.722;2023-05-08T16:35:08;101136.22;;;13.01;51.81